Time;durP1;ratioP1;P1;durP2;ratioP2;P2;SDS_P1;SDS_P2;PMS_P1;PMS_P2;Temp;Humidity;BMP_temperature;BMP_pressure;BME280_temperature;BME280_humidity;BME280_pressure;Samples;Min_cycle;Max_cycle;Signal;HPM_P1;HPM_P2
2021/03/04 00:04:50;;;;;;;62.88;26.27;;;;;;;8.26;53.81;100518.28;5033909;28;20037;-87
2021/03/04 00:38:55;;;;;;;98.85;26.65;;;;;;;8.10;54.13;100521.44;4934255;29;20438;-87
2021/03/04 01:05:33;;;;;;;72.50;27.67;;;;;;;7.71;55.64;100501.75;4952943;29;20042;-87
2021/03/04 02:32:10;;;;;;;75.95;28.85;;;;;;;7.46;55.53;100412.63;4983858;28;20174;-87
2021/03/04 05:17:05;;;;;;;47.88;16.70;;;;;;;7.15;55.84;100294.91;5062501;22;20102;-85
2021/03/04 05:19:31;;;;;;;43.45;15.32;;;;;;;7.11;55.94;100288.06;5053586;28;20045;-85
2021/03/04 05:21:58;;;;;;;58.72;18.15;;;;;;;7.08;56.04;100288.19;5038521;28;20414;-85
2021/03/04 05:24:24;;;;;;;74.65;17.20;;;;;;;7.06;56.53;100279.50;5039843;28;20060;-85
2021/03/04 05:26:50;;;;;;;49.08;17.13;;;;;;;7.06;56.73;100273.44;5028238;28;20045;-85
2021/03/04 05:29:16;;;;;;;36.33;14.98;;;;;;;7.07;56.81;100264.66;5022511;28;20403;-85
2021/03/04 05:31:43;;;;;;;77.07;16.98;;;;;;;7.06;57.10;100261.19;5020116;28;20046;-85
2021/03/04 05:34:09;;;;;;;86.00;17.52;;;;;;;7.08;56.99;100253.28;5020294;28;20475;-84
2021/03/04 05:36:35;;;;;;;37.30;16.95;;;;;;;7.10;57.02;100254.09;5037386;28;20450;-85
2021/03/04 05:39:02;;;;;;;69.47;17.00;;;;;;;7.13;57.12;100247.00;5037249;28;20072;-85
2021/03/04 05:41:29;;;;;;;48.88;15.77;;;;;;;7.15;57.07;100241.69;5038586;28;20103;-85
2021/03/04 05:43:56;;;;;;;63.47;16.85;;;;;;;7.15;57.11;100236.47;5038157;28;20056;-85
2021/03/04 05:46:22;;;;;;;40.28;16.25;;;;;;;7.16;57.10;100236.41;5036392;28;20132;-85
2021/03/04 05:48:50;;;;;;;48.15;16.98;;;;;;;7.16;57.09;100256.50;5039682;28;20457;-86
2021/03/04 05:51:25;;;;;;;41.97;17.77;;;;;;;7.11;58.05;100255.81;5039444;28;20060;-85
2021/03/04 05:53:57;;;;;;;55.13;17.63;;;;;;;7.11;57.98;100261.03;5039079;28;20060;-85
2021/03/04 05:56:25;;;;;;;44.72;17.83;;;;;;;7.12;57.25;100263.59;5057351;28;20143;-85
2021/03/04 05:58:52;;;;;;;49.05;17.40;;;;;;;7.12;57.25;100273.22;5030550;28;20052;-85
2021/03/04 06:01:19;;;;;;;46.80;17.00;;;;;;;7.12;56.83;100283.69;5038454;28;20049;-85
2021/03/04 06:03:47;;;;;;;45.45;17.40;;;;;;;7.09;57.04;100282.03;5039096;28;20392;-85
2021/03/04 06:06:13;;;;;;;43.33;17.35;;;;;;;7.07;56.63;100281.25;5039773;28;20045;-85
2021/03/04 06:08:39;;;;;;;32.53;15.63;;;;;;;7.03;56.86;100279.63;5038755;28;20045;-85
2021/03/04 06:11:06;;;;;;;39.80;15.15;;;;;;;6.99;56.92;100283.25;5039331;28;20048;-85
2021/03/04 06:13:32;;;;;;;39.88;16.00;;;;;;;6.96;57.21;100278.13;5049520;28;20045;-85
2021/03/04 06:16:00;;;;;;;38.25;15.50;;;;;;;6.93;57.14;100275.59;5036243;28;20053;-85
2021/03/04 06:18:42;;;;;;;44.38;15.75;;;;;;;6.88;58.34;100279.22;5031299;28;20053;-85
2021/03/04 06:21:22;;;;;;;38.50;14.82;;;;;;;6.87;58.35;100259.19;5056500;28;20048;-85
2021/03/04 06:23:49;;;;;;;69.68;16.98;;;;;;;6.91;57.56;100265.19;5056281;28;20052;-85
2021/03/04 06:26:35;;;;;;;74.18;18.45;;;;;;;6.88;58.36;100268.75;5039338;28;20060;-85
2021/03/04 06:29:31;;;;;;;55.50;16.33;;;;;;;6.87;58.61;100263.56;5038829;28;20068;-85
2021/03/04 06:32:05;;;;;;;79.47;15.77;;;;;;;6.87;58.67;100267.06;5018900;28;20049;-85
2021/03/04 06:34:33;;;;;;;54.03;16.33;;;;;;;6.89;57.65;100253.91;5038346;28;20052;-85
2021/03/04 06:37:05;;;;;;;66.05;17.23;;;;;;;6.88;58.63;100257.44;5056229;28;20061;-84
2021/03/04 06:39:44;;;;;;;51.83;14.88;;;;;;;6.87;59.08;100259.19;5056194;28;20407;-85
2021/03/04 06:42:12;;;;;;;46.22;14.40;;;;;;;6.91;58.14;100249.47;5056098;28;20053;-86
2021/03/04 06:44:43;;;;;;;31.58;14.73;;;;;;;6.91;58.71;100247.72;5055690;28;20049;-85
2021/03/04 06:47:10;;;;;;;60.25;15.35;;;;;;;6.93;58.06;100245.06;5037552;28;20056;-85
2021/03/04 06:49:42;;;;;;;53.40;14.52;;;;;;;6.93;58.51;100242.44;5037767;28;20049;-85
2021/03/04 06:52:09;;;;;;;30.90;13.43;;;;;;;6.95;58.15;100247.63;5018868;28;20046;-85
2021/03/04 06:54:35;;;;;;;38.28;13.43;;;;;;;6.95;58.00;100261.56;5018174;28;20066;-85
2021/03/04 06:57:12;;;;;;;34.60;13.38;;;;;;;6.94;59.08;100261.59;5035577;28;20054;-85
2021/03/04 06:59:40;;;;;;;71.70;13.95;;;;;;;7.00;58.01;100261.41;5035785;28;20046;-86
2021/03/04 07:02:08;;;;;;;50.60;14.00;;;;;;;6.98;57.95;100248.38;5018285;28;20045;-85
2021/03/04 07:04:34;;;;;;;29.05;13.20;;;;;;;7.00;57.79;100258.78;5019979;28;20053;-86
2021/03/04 07:07:01;;;;;;;29.80;12.45;;;;;;;7.00;57.67;100254.41;5055716;28;20048;-85
2021/03/04 07:09:28;;;;;;;28.58;12.63;;;;;;;6.99;57.93;100255.31;5055600;28;20048;-85
2021/03/04 07:11:54;;;;;;;28.80;13.38;;;;;;;7.00;57.76;100262.25;5038000;28;20064;-85
2021/03/04 07:14:21;;;;;;;33.80;13.20;;;;;;;7.00;57.75;100254.41;5037869;28;20060;-85
2021/03/04 07:16:48;;;;;;;28.80;14.13;;;;;;;7.01;57.71;100266.59;5055474;28;20060;-84
2021/03/04 07:19:18;;;;;;;36.53;14.10;;;;;;;7.00;57.53;100264.03;5030816;28;20128;-84
2021/03/04 07:21:47;;;;;;;36.50;13.52;;;;;;;6.98;57.96;100255.34;5018007;28;20419;-84
2021/03/04 07:24:13;;;;;;;28.00;11.90;;;;;;;6.96;57.74;100251.94;5017697;28;20049;-84
2021/03/04 07:26:40;;;;;;;35.15;12.85;;;;;;;6.97;57.67;100245.81;5017663;28;20091;-83
2021/03/04 07:29:09;;;;;;;37.22;13.27;;;;;;;6.95;57.83;100240.63;5017788;28;20041;-84
2021/03/04 07:31:38;;;;;;;28.15;13.02;;;;;;;6.94;58.02;100238.03;5026032;28;20442;-84
2021/03/04 07:34:10;;;;;;;27.35;13.13;;;;;;;6.92;58.39;100243.34;5037230;28;20048;-83
2021/03/04 07:36:37;;;;;;;23.17;11.73;;;;;;;6.93;57.72;100246.81;5053391;28;20106;-85
2021/03/04 07:39:05;;;;;;;25.88;12.43;;;;;;;6.92;57.73;100251.22;5037038;28;20045;-84
2021/03/04 07:41:40;;;;;;;30.27;12.60;;;;;;;6.88;58.38;100246.97;5054721;28;20053;-84
2021/03/04 07:44:07;;;;;;;22.98;11.13;;;;;;;6.88;57.76;100252.22;5053620;28;20056;-84
2021/03/04 07:46:38;;;;;;;22.52;10.65;;;;;;;6.88;57.69;100260.06;5054199;28;20544;-84
2021/03/04 07:49:06;;;;;;;27.00;10.70;;;;;;;6.87;58.02;100280.13;5054758;28;20506;-84
2021/03/04 07:51:44;;;;;;;33.13;12.63;;;;;;;6.86;58.64;100291.53;5035850;28;20048;-83
2021/03/04 07:54:11;;;;;;;24.50;10.95;;;;;;;6.87;57.88;100280.13;5030496;28;20055;-83
2021/03/04 07:56:37;;;;;;;40.38;11.75;;;;;;;6.89;57.74;100278.31;5034503;28;20123;-83
2021/03/04 07:59:09;;;;;;;34.92;10.60;;;;;;;6.89;58.56;100287.94;5016907;28;20056;-84
2021/03/04 08:01:36;;;;;;;28.08;11.18;;;;;;;6.91;57.99;100273.03;5034210;28;20519;-84
2021/03/04 08:04:03;;;;;;;29.40;10.38;;;;;;;6.89;58.04;100275.69;5016384;28;20061;-84
2021/03/04 08:06:29;;;;;;;30.60;10.48;;;;;;;6.90;57.80;100272.19;5016767;28;20053;-84
2021/03/04 08:08:55;;;;;;;24.88;9.10;;;;;;;6.88;57.81;100266.13;5035071;28;20408;-84
2021/03/04 08:11:29;;;;;;;25.23;9.93;;;;;;;6.85;58.99;100254.94;5036313;28;20060;-84
2021/03/04 08:13:56;;;;;;;20.80;9.68;;;;;;;6.88;58.13;100257.44;5053950;28;20053;-84
2021/03/04 08:16:22;;;;;;;30.23;10.10;;;;;;;6.87;57.96;100259.19;5036177;28;20063;-84
2021/03/04 08:18:56;;;;;;;21.55;9.43;;;;;;;6.85;58.87;100250.56;5054106;28;20553;-84
2021/03/04 08:21:23;;;;;;;25.15;9.40;;;;;;;6.88;58.20;100247.81;5053025;28;20419;-83
2021/03/04 08:23:50;;;;;;;21.73;9.10;;;;;;;6.88;58.25;100245.19;5024072;28;20053;-84
2021/03/04 08:26:27;;;;;;;21.55;9.25;;;;;;;6.86;58.89;100231.31;5016421;28;20060;-83
2021/03/04 08:29:11;;;;;;;18.90;8.95;;;;;;;6.87;59.28;100229.53;5016572;28;20056;-84
2021/03/04 08:31:45;;;;;;;18.73;7.95;;;;;;;6.90;59.23;100243.41;5018727;28;20056;-84
2021/03/04 08:34:11;;;;;;;15.55;7.47;;;;;;;6.95;58.28;100237.16;5015894;28;20049;-84
2021/03/04 08:36:42;;;;;;;15.38;7.95;;;;;;;6.97;58.94;100243.19;5016461;28;20046;-84
2021/03/04 08:39:09;;;;;;;15.95;7.47;;;;;;;7.01;58.33;100234.31;5017113;28;20412;-84
2021/03/04 08:41:36;;;;;;;17.98;8.18;;;;;;;7.03;58.58;100237.75;5042482;28;20096;-84
2021/03/04 08:44:18;;;;;;;15.35;7.82;;;;;;;7.04;59.14;100249.94;5035165;28;20057;-84
2021/03/04 08:46:50;;;;;;;14.50;7.25;;;;;;;7.10;59.10;100259.34;5035385;28;20055;-84
2021/03/04 08:49:23;;;;;;;16.02;7.75;;;;;;;7.12;58.59;100253.13;5035535;28;20048;-84
2021/03/04 08:51:50;;;;;;;14.10;7.75;;;;;;;7.15;57.95;100258.25;5035677;28;20056;-84
2021/03/04 08:54:26;;;;;;;18.75;7.75;;;;;;;7.13;58.53;100262.69;5035018;28;20492;-84
2021/03/04 08:57:07;;;;;;;17.17;7.65;;;;;;;7.13;58.30;100261.81;5037882;28;20049;-84
2021/03/04 08:59:33;;;;;;;15.73;8.07;;;;;;;7.14;57.96;100261.78;5029895;28;20041;-84
2021/03/04 09:01:59;;;;;;;15.15;7.72;;;;;;;7.12;57.91;100257.50;5053303;28;20395;-84
2021/03/04 09:04:27;;;;;;;15.05;7.55;;;;;;;7.09;57.90;100262.84;5034995;28;20098;-84
2021/03/04 09:06:55;;;;;;;16.05;7.18;;;;;;;7.06;57.87;100265.59;5035180;28;20048;-84
2021/03/04 09:09:28;;;;;;;15.95;6.95;;;;;;;7.01;58.39;100268.34;5052842;28;20051;-84
2021/03/04 09:11:55;;;;;;;;;;;;;;;6.99;58.06;100268.41;5028090;28;20140;-84
2021/03/04 09:14:29;;;;;;;11.60;5.30;;;;;;;6.97;58.22;100266.75;5032792;28;19921;-84
2021/03/04 09:16:57;;;;;;;11.45;5.63;;;;;;;6.95;57.93;100265.94;5017541;28;20510;-83
2021/03/04 09:19:35;;;;;;;13.88;6.78;;;;;;;6.88;58.53;100263.53;5015938;28;20450;-84
2021/03/04 09:22:08;;;;;;;11.90;5.90;;;;;;;6.87;58.43;100266.19;5015576;28;20057;-84
2021/03/04 09:24:37;;;;;;;10.27;5.25;;;;;;;6.86;58.09;100265.34;5032852;28;20574;-84
2021/03/04 09:27:05;;;;;;;12.75;6.35;;;;;;;6.85;58.02;100258.41;5015495;28;20056;-84
2021/03/04 09:29:33;;;;;;;13.57;5.68;;;;;;;6.84;58.33;100255.84;5033571;28;20049;-84
2021/03/04 09:31:59;;;;;;;13.23;6.63;;;;;;;6.84;58.09;100248.00;5015612;28;20453;-84
2021/03/04 09:34:32;;;;;;;10.98;6.05;;;;;;;6.85;58.56;100253.19;5032750;28;20099;-84
2021/03/04 09:37:26;;;;;;;11.25;5.80;;;;;;;6.83;58.90;100257.59;5014385;28;20049;-84
2021/03/04 09:39:55;;;;;;;14.48;6.63;;;;;;;6.89;58.55;100251.31;5031362;28;20412;-84
2021/03/04 09:42:34;;;;;;;13.15;7.13;;;;;;;6.87;58.96;100235.66;5016137;28;20054;-84
2021/03/04 09:45:03;;;;;;;13.18;6.13;;;;;;;6.91;58.41;100242.50;5032974;28;20523;-84
2021/03/04 09:47:31;;;;;;;14.05;6.25;;;;;;;6.94;58.50;100241.53;5016085;28;20046;-84
2021/03/04 09:49:59;;;;;;;13.88;6.63;;;;;;;6.96;58.46;100244.09;5032748;28;20132;-84
2021/03/04 09:52:28;;;;;;;15.10;6.65;;;;;;;6.97;58.31;100243.19;5035514;28;20048;-84
2021/03/04 09:55:08;;;;;;;13.82;6.75;;;;;;;6.96;59.29;100241.47;5025318;28;20058;-84
2021/03/04 09:57:40;;;;;;;10.98;6.15;;;;;;;6.99;58.85;100228.28;5015691;28;20049;-83
2021/03/04 10:00:16;;;;;;;9.77;5.25;;;;;;;7.01;59.36;100234.31;5015520;28;20054;-84
2021/03/04 10:02:52;;;;;;;10.88;5.22;;;;;;;7.06;58.81;100232.38;5032997;28;20049;-83
2021/03/04 10:05:21;;;;;;;10.40;5.63;;;;;;;7.10;58.77;100231.38;5032370;28;20107;-84
2021/03/04 10:07:48;;;;;;;10.52;5.90;;;;;;;7.13;nan;100239.13;5020071;28;20057;-84
2021/03/04 10:10:17;;;;;;;13.50;6.40;;;;;;;7.17;59.01;100229.41;5018890;28;20083;-83
2021/03/04 10:12:56;;;;;;;13.45;6.13;;;;;;;7.18;59.87;100233.75;5036815;28;20049;-84
2021/03/04 10:15:33;;;;;;;10.43;5.75;;;;;;;7.23;59.54;100229.19;5035947;28;20046;-84
2021/03/04 10:18:03;;;;;;;10.43;6.20;;;;;;;7.28;58.56;100232.50;5019048;28;20096;-84
2021/03/04 10:20:30;;;;;;;12.27;6.20;;;;;;;7.33;58.51;100229.69;5021241;28;20046;-84
2021/03/04 10:22:56;;;;;;;13.32;6.70;;;;;;;7.36;58.31;100239.25;5018839;28;20127;-83
2021/03/04 10:25:23;;;;;;;13.07;6.78;;;;;;;7.36;57.97;100237.47;5037121;28;20060;-84
2021/03/04 10:27:50;;;;;;;11.80;6.05;;;;;;;7.35;58.36;100235.75;5055749;28;20057;-83
2021/03/04 10:30:20;;;;;;;12.90;6.20;;;;;;;7.34;58.18;100230.56;5019118;28;20057;-84
2021/03/04 10:32:46;;;;;;;12.73;6.10;;;;;;;7.34;58.02;100230.56;5036045;28;20045;-84
2021/03/04 10:35:15;;;;;;;11.70;5.88;;;;;;;7.32;58.63;100228.00;5018936;28;20052;-84
2021/03/04 10:37:42;;;;;;;12.50;6.65;;;;;;;7.32;58.58;100227.16;5037549;28;20044;-83
2021/03/04 10:40:10;;;;;;;14.00;6.35;;;;;;;7.33;58.67;100228.88;5055450;28;20053;-83
2021/03/04 10:42:37;;;;;;;12.43;6.50;;;;;;;7.34;58.77;100231.44;5038036;28;20483;-84
2021/03/04 10:45:08;;;;;;;11.25;6.20;;;;;;;7.34;59.36;100233.19;5055352;28;20049;-84
2021/03/04 10:47:35;;;;;;;12.52;6.45;;;;;;;7.36;58.79;100234.84;5038138;28;20690;-83
2021/03/04 10:50:03;;;;;;;12.32;6.03;;;;;;;7.37;58.91;100231.31;5038491;28;20044;-84
2021/03/04 10:52:29;;;;;;;19.02;6.43;;;;;;;7.38;58.67;100233.03;5054521;28;20052;-84
2021/03/04 10:54:55;;;;;;;14.18;6.75;;;;;;;7.40;58.97;100215.47;5037442;28;20495;-84
2021/03/04 10:57:22;;;;;;;14.25;7.40;;;;;;;7.42;59.02;100226.78;5037994;28;20049;-84
2021/03/04 10:59:49;;;;;;;12.63;6.70;;;;;;;7.46;58.82;100229.25;5037507;28;20045;-84
2021/03/04 11:02:15;;;;;;;11.85;6.35;;;;;;;7.46;58.70;100229.25;5037477;28;20057;-84
2021/03/04 11:04:42;;;;;;;11.45;6.45;;;;;;;7.46;58.67;100229.25;5037326;28;20080;-84
2021/03/04 11:07:08;;;;;;;11.05;6.22;;;;;;;7.45;58.72;100225.81;5037962;28;20075;-84
2021/03/04 11:09:34;;;;;;;13.65;6.38;;;;;;;7.45;58.49;100232.81;5055052;28;20052;-84
2021/03/04 11:12:01;;;;;;;10.50;5.38;;;;;;;7.43;58.61;100231.09;5036759;28;20056;-84
2021/03/04 11:14:27;;;;;;;10.50;5.75;;;;;;;7.43;58.36;100231.09;5055065;28;20049;-84
2021/03/04 11:16:53;;;;;;;9.77;5.18;;;;;;;7.43;58.41;100233.72;5036019;28;20055;-83
2021/03/04 11:19:19;;;;;;;8.77;4.97;;;;;;;7.43;58.60;100228.47;5052188;28;20064;-84
2021/03/04 11:21:46;;;;;;;10.73;5.15;;;;;;;7.43;58.40;100231.09;5035802;28;20132;-84
2021/03/04 11:24:13;;;;;;;7.18;4.72;;;;;;;7.41;58.36;100232.06;5036383;28;20079;-84
2021/03/04 11:26:39;;;;;;;8.82;5.15;;;;;;;7.40;58.67;100233.81;5015974;28;20526;-84
2021/03/04 11:29:07;;;;;;;11.23;5.75;;;;;;;7.41;58.94;100227.66;5016159;28;20041;-84
2021/03/04 11:31:35;;;;;;;10.65;5.57;;;;;;;7.41;58.93;100222.44;5031827;28;20055;-84
2021/03/04 11:34:02;;;;;;;10.45;5.22;;;;;;;7.44;58.69;100221.47;5035919;28;20053;-84
2021/03/04 11:36:30;;;;;;;9.93;6.03;;;;;;;7.46;58.70;100224.88;5036003;28;20083;-84
2021/03/04 11:38:56;;;;;;;9.00;4.88;;;;;;;7.48;58.56;100227.47;5036238;28;20045;-84
2021/03/04 11:41:23;;;;;;;10.27;5.88;;;;;;;7.50;58.68;100217.75;5052769;28;20411;-83
2021/03/04 11:43:53;;;;;;;10.68;6.30;;;;;;;7.49;58.27;100219.56;5053075;28;20049;-84
2021/03/04 11:46:19;;;;;;;10.18;6.10;;;;;;;7.50;58.73;100220.38;5035973;28;20049;-83
2021/03/04 11:48:47;;;;;;;10.45;6.00;;;;;;;7.49;58.52;100224.78;5036323;28;20071;-84
2021/03/04 11:51:14;;;;;;;10.07;5.95;;;;;;;7.51;59.18;100219.50;5036085;28;20056;-84
2021/03/04 11:53:40;;;;;;;11.30;6.40;;;;;;;7.51;58.46;100217.72;5053707;28;20049;-84
2021/03/04 11:56:19;;;;;;;12.18;6.63;;;;;;;7.54;58.83;100206.25;5037909;28;20388;-83
2021/03/04 11:58:45;;;;;;;10.73;6.45;;;;;;;7.56;58.67;100200.06;5053611;28;20049;-84
2021/03/04 12:01:12;;;;;;;9.43;5.63;;;;;;;7.60;58.69;100198.19;5035431;28;20098;-84
2021/03/04 12:03:38;;;;;;;11.38;6.28;;;;;;;7.63;58.55;100190.19;5036023;28;20045;-84
2021/03/04 12:06:04;;;;;;;10.90;6.38;;;;;;;7.67;58.51;100196.19;5053227;28;20492;-84
2021/03/04 12:08:30;;;;;;;10.32;6.07;;;;;;;7.71;58.29;100191.69;5053568;28;20442;-84
2021/03/04 12:11:16;;;;;;;10.80;6.65;;;;;;;7.75;58.27;100182.78;5053956;28;20056;-83
2021/03/04 12:13:42;;;;;;;12.35;6.65;;;;;;;7.76;57.99;100177.50;5047485;28;20045;-84
2021/03/04 12:16:09;;;;;;;11.68;6.25;;;;;;;7.79;58.12;100179.13;5031715;28;622301;-84
2021/03/04 12:18:36;;;;;;;10.35;6.45;;;;;;;7.81;58.23;100169.44;5036703;28;20059;-84
2021/03/04 12:21:03;;;;;;;8.15;5.60;;;;;;;7.82;58.14;100172.00;5036379;28;20056;-84
2021/03/04 12:23:30;;;;;;;11.82;6.35;;;;;;;7.83;58.00;100170.25;5054254;28;20052;-84
2021/03/04 12:25:56;;;;;;;8.43;5.40;;;;;;;7.86;57.94;100169.28;5053871;28;20059;-84
2021/03/04 12:28:41;;;;;;;9.88;6.07;;;;;;;7.88;58.01;100157.81;5019778;28;20077;-84
2021/03/04 12:31:07;;;;;;;9.55;5.55;;;;;;;7.90;57.85;100156.00;5016382;28;20057;-84
2021/03/04 12:33:33;;;;;;;12.23;6.05;;;;;;;7.92;58.23;100148.91;5016757;28;20053;-84
2021/03/04 12:36:00;;;;;;;9.93;5.90;;;;;;;7.94;58.02;100147.09;5016207;28;20057;-84
2021/03/04 12:38:38;;;;;;;9.90;5.85;;;;;;;7.93;58.46;100155.84;5051315;28;20048;-84
2021/03/04 12:41:05;;;;;;;9.65;5.72;;;;;;;7.98;58.33;100149.56;5025007;28;20049;-84
2021/03/04 12:43:31;;;;;;;8.57;5.20;;;;;;;8.00;57.96;100143.34;5034498;28;20057;-84
2021/03/04 12:45:58;;;;;;;8.77;5.30;;;;;;;8.04;58.25;100149.34;5033608;28;20514;-84
2021/03/04 12:48:25;;;;;;;8.77;5.18;;;;;;;8.05;57.96;100141.44;5016284;28;20522;-84
2021/03/04 12:50:51;;;;;;;10.48;6.13;;;;;;;8.07;58.08;100142.19;5016390;28;20045;-85
2021/03/04 12:53:17;;;;;;;14.82;5.30;;;;;;;8.10;57.91;100141.22;5016269;28;20049;-84
2021/03/04 12:55:43;;;;;;;10.57;5.88;;;;;;;8.13;58.06;100142.88;5033591;28;20049;-84
2021/03/04 12:58:15;;;;;;;9.32;5.43;;;;;;;8.14;58.27;100137.56;5053520;28;20079;-84
2021/03/04 13:00:44;;;;;;;9.30;5.47;;;;;;;8.15;57.97;100144.50;5035938;28;20056;-84
2021/03/04 13:03:28;;;;;;;9.82;5.43;;;;;;;8.19;57.98;100130.34;5038862;28;20053;-84
2021/03/04 13:05:54;;;;;;;9.23;5.22;;;;;;;8.21;57.58;100125.91;5053179;28;20048;-85
2021/03/04 13:08:20;;;;;;;9.18;5.35;;;;;;;8.23;57.59;100122.38;5035735;28;20041;-84
2021/03/04 13:10:47;;;;;;;9.65;5.40;;;;;;;8.24;57.58;100130.19;5035337;28;20056;-84
2021/03/04 13:13:14;;;;;;;10.82;5.55;;;;;;;8.23;57.52;100131.09;5035725;28;20101;-84
2021/03/04 13:15:40;;;;;;;13.88;5.80;;;;;;;8.24;57.70;100127.56;5035129;28;20053;-84
2021/03/04 13:18:06;;;;;;;10.30;5.28;;;;;;;8.25;57.78;100126.63;5035495;28;20518;-84
2021/03/04 13:20:32;;;;;;;9.75;4.88;;;;;;;8.27;57.60;100123.94;5035846;28;20135;-84
2021/03/04 13:22:59;;;;;;;7.80;5.25;;;;;;;8.30;58.03;100122.03;5023228;28;20089;-85
2021/03/04 13:25:26;;;;;;;12.25;5.65;;;;;;;8.33;58.00;100118.44;5015704;28;20103;-84
2021/03/04 13:27:53;;;;;;;9.32;5.05;;;;;;;8.36;58.06;100115.69;5033491;28;20454;-84
2021/03/04 13:30:19;;;;;;;9.88;5.65;;;;;;;8.42;57.73;100109.34;5033272;28;20492;-84
2021/03/04 13:32:46;;;;;;;9.05;5.30;;;;;;;8.45;57.81;100110.06;5033459;28;20046;-85
2021/03/04 13:35:13;;;;;;;10.90;6.20;;;;;;;8.49;57.53;100113.41;5020927;28;20048;-85
2021/03/04 13:37:39;;;;;;;9.35;5.90;;;;;;;8.52;57.41;100121.13;5035471;28;20049;-85
2021/03/04 13:40:07;;;;;;;10.85;6.22;;;;;;;8.52;57.05;100128.19;5052775;28;20041;-85
2021/03/04 13:42:51;;;;;;;10.38;6.38;;;;;;;8.46;57.41;100132.75;5062705;28;20510;-85
2021/03/04 13:45:17;;;;;;;12.30;6.50;;;;;;;8.47;57.23;100137.09;5058781;28;20063;-85
2021/03/04 13:47:43;;;;;;;9.88;6.20;;;;;;;8.44;57.40;100131.09;5059093;28;20061;-85
2021/03/04 13:50:10;;;;;;;10.93;6.45;;;;;;;8.42;57.18;100130.31;5041296;28;20455;-85
2021/03/04 13:52:36;;;;;;;12.07;6.78;;;;;;;8.38;57.00;100124.38;5022478;28;20046;-85
2021/03/04 13:55:02;;;;;;;10.90;6.60;;;;;;;8.35;57.19;100120.06;5018473;28;20054;-85
2021/03/04 13:57:45;;;;;;;10.63;6.18;;;;;;;8.31;57.03;100120.28;5036539;28;20064;-84
2021/03/04 14:00:12;;;;;;;13.32;6.95;;;;;;;8.27;57.02;100118.69;5021555;28;20052;-85
2021/03/04 14:02:38;;;;;;;13.15;7.28;;;;;;;8.23;57.08;100120.63;5055758;28;20051;-85
2021/03/04 14:05:05;;;;;;;13.63;7.82;;;;;;;8.23;57.22;100127.63;5038281;28;20099;-85
2021/03/04 14:07:33;;;;;;;17.75;7.78;;;;;;;8.20;57.47;100121.59;5038698;28;20060;-85
2021/03/04 14:10:08;;;;;;;12.43;7.72;;;;;;;8.19;57.36;100119.03;5038760;28;20095;-85
2021/03/04 14:12:35;;;;;;;14.45;8.68;;;;;;;8.21;57.46;100123.28;5034725;28;20128;-85
2021/03/04 14:15:02;;;;;;;13.32;8.07;;;;;;;8.22;57.43;100124.13;5018094;28;20057;-85
2021/03/04 14:17:28;;;;;;;16.23;8.45;;;;;;;8.23;57.44;100123.22;5035923;28;20136;-85
2021/03/04 14:19:54;;;;;;;14.10;8.63;;;;;;;8.25;57.57;100123.16;5018328;28;20049;-85
2021/03/04 14:22:22;;;;;;;15.25;8.45;;;;;;;8.26;57.67;100114.38;5036463;28;20045;-85
2021/03/04 14:24:49;;;;;;;15.63;9.35;;;;;;;8.26;57.57;100117.00;5018371;28;20060;-85
2021/03/04 14:27:17;;;;;;;15.63;9.77;;;;;;;8.27;57.35;100110.84;5027443;28;20099;-85
2021/03/04 14:29:44;;;;;;;15.50;9.98;;;;;;;8.26;57.40;100112.59;5056000;28;20045;-85
2021/03/04 14:32:10;;;;;;;19.25;9.60;;;;;;;8.26;57.50;100111.75;5038298;28;20092;-85
2021/03/04 14:34:40;;;;;;;17.63;10.02;;;;;;;8.25;57.41;100112.66;5055398;28;20049;-85
2021/03/04 14:37:07;;;;;;;14.75;8.88;;;;;;;8.24;57.52;100111.81;5038004;28;20414;-85
2021/03/04 14:39:33;;;;;;;18.73;10.50;;;;;;;8.23;57.26;100107.50;5036326;28;20433;-85
2021/03/04 14:42:00;;;;;;;16.40;9.88;;;;;;;8.20;57.44;100103.25;5017961;28;20089;-84
2021/03/04 14:44:26;;;;;;;18.08;9.55;;;;;;;8.18;57.60;100107.69;5017660;28;20053;-85
2021/03/04 14:46:52;;;;;;;17.35;9.77;;;;;;;8.17;57.41;100105.97;5018035;28;20053;-84
2021/03/04 14:49:19;;;;;;;15.80;9.75;;;;;;;8.16;57.58;100114.78;5035451;28;20132;-85
2021/03/04 14:51:45;;;;;;;15.27;9.25;;;;;;;8.14;57.86;100116.59;5017891;28;20084;-85
2021/03/04 14:54:12;;;;;;;15.55;9.48;;;;;;;8.14;57.81;100107.84;5027367;28;20059;-85
2021/03/04 14:56:40;;;;;;;17.92;9.68;;;;;;;8.13;57.83;100104.41;5055505;28;20495;-85
2021/03/04 14:59:09;;;;;;;14.60;8.52;;;;;;;8.08;57.92;100101.13;5055692;28;20073;-85
2021/03/04 15:01:35;;;;;;;13.73;9.15;;;;;;;8.07;57.66;100096.75;5038000;28;20139;-85
2021/03/04 15:04:02;;;;;;;12.38;8.25;;;;;;;8.06;58.18;100090.69;5035694;28;20059;-85
2021/03/04 15:06:28;;;;;;;15.60;10.02;;;;;;;8.05;57.94;100086.38;5037757;28;20045;-85
2021/03/04 15:09:14;;;;;;;14.52;8.70;;;;;;;8.04;58.09;100091.66;5055637;28;20471;-85
2021/03/04 15:11:41;;;;;;;16.20;8.85;;;;;;;8.07;58.29;100086.28;5038144;28;20045;-84
2021/03/04 15:14:12;;;;;;;14.35;8.05;;;;;;;8.05;58.37;100082.88;5037846;28;20053;-85
2021/03/04 15:16:41;;;;;;;15.57;8.43;;;;;;;8.06;58.17;100080.19;5055785;28;20055;-85
2021/03/04 15:19:26;;;;;;;12.17;8.13;;;;;;;8.09;58.22;100087.09;5054117;28;20045;-85
2021/03/04 15:21:52;;;;;;;18.13;9.18;;;;;;;8.13;58.43;100086.03;5055875;28;20048;-85
2021/03/04 15:24:21;;;;;;;14.98;7.57;;;;;;;8.16;58.66;100085.06;5037370;28;20490;-85
2021/03/04 15:26:55;;;;;;;11.05;7.70;;;;;;;8.19;58.33;100080.53;5037950;28;20081;-85
2021/03/04 15:29:21;;;;;;;13.32;8.07;;;;;;;8.24;58.46;100092.59;5037829;28;20450;-85
2021/03/04 15:31:48;;;;;;;13.15;7.97;;;;;;;8.27;58.38;100085.47;5032681;28;20053;-84
2021/03/04 15:34:15;;;;;;;13.68;8.00;;;;;;;8.32;58.90;100082.63;5036384;28;20107;-85
2021/03/04 15:36:41;;;;;;;12.10;7.35;;;;;;;8.37;58.78;100082.47;5054764;28;20048;-85
2021/03/04 15:39:09;;;;;;;15.90;8.13;;;;;;;8.42;58.51;100083.97;5054726;28;20045;-84
2021/03/04 15:41:35;;;;;;;15.57;7.93;;;;;;;8.45;58.42;100080.38;5053620;28;20061;-85
2021/03/04 15:44:02;;;;;;;11.70;7.10;;;;;;;8.45;58.33;100081.19;5052446;28;20068;-85
2021/03/04 15:46:28;;;;;;;12.68;8.07;;;;;;;8.45;58.16;100077.75;5036616;28;20053;-85
2021/03/04 15:48:55;;;;;;;14.00;7.32;;;;;;;8.45;58.09;100081.19;5036928;28;20103;-85
2021/03/04 15:51:21;;;;;;;15.60;7.38;;;;;;;8.47;58.05;100083.75;5036998;28;20103;-85
2021/03/04 15:53:56;;;;;;;16.17;8.25;;;;;;;8.44;58.80;100090.00;5054073;28;20110;-85
2021/03/04 15:56:22;;;;;;;12.15;7.63;;;;;;;8.48;58.12;100088.06;5054254;28;20136;-85
2021/03/04 15:58:49;;;;;;;15.27;7.20;;;;;;;8.47;58.40;100084.63;5021270;28;20132;-85
2021/03/04 16:01:15;;;;;;;15.98;7.53;;;;;;;8.48;58.04;100077.59;5034756;28;20061;-85
2021/03/04 16:03:42;;;;;;;14.38;7.20;;;;;;;8.47;57.85;100079.38;5034244;28;20060;-86
2021/03/04 16:06:08;;;;;;;15.35;6.82;;;;;;;8.47;58.08;100081.13;5016055;28;20066;-85
2021/03/04 16:08:34;;;;;;;9.88;6.43;;;;;;;8.46;57.90;100080.28;5034045;28;20240;-84
2021/03/04 16:11:02;;;;;;;12.95;6.88;;;;;;;8.45;57.93;100083.81;5036855;28;20048;-85
2021/03/04 16:13:28;;;;;;;17.00;7.53;;;;;;;8.43;57.80;100075.19;5048888;28;20052;-85
2021/03/04 16:15:55;;;;;;;15.57;7.13;;;;;;;8.42;57.63;100075.25;5015619;28;20091;-85
2021/03/04 16:18:21;;;;;;;11.48;6.30;;;;;;;8.39;58.06;100070.97;5034192;28;20462;-85
2021/03/04 16:20:48;;;;;;;13.15;7.00;;;;;;;8.37;57.90;100075.41;5034211;28;20080;-85
2021/03/04 16:23:18;;;;;;;12.23;6.35;;;;;;;8.35;58.07;100078.09;5037682;28;20052;-85
2021/03/04 16:25:45;;;;;;;13.85;6.82;;;;;;;8.35;57.91;100074.66;5053160;28;20056;-85
2021/03/04 16:28:17;;;;;;;;;;;;;;;8.34;58.26;100070.31;5037620;28;20049;-85
2021/03/04 16:30:43;;;;;;;10.45;6.43;;;;;;;8.37;57.89;100074.59;5054108;28;19921;-85
2021/03/04 16:33:09;;;;;;;15.18;6.13;;;;;;;8.33;57.97;100072.09;5053711;28;20051;-85
2021/03/04 16:35:36;;;;;;;12.20;6.65;;;;;;;8.30;57.90;100079.25;5052903;28;20107;-85
2021/03/04 16:38:07;;;;;;;11.10;6.72;;;;;;;8.27;58.07;100084.59;5041502;28;20084;-85